createdAt,value
2023-04-30T00:01:30.226Z,100392.63
2023-04-30T00:04:00.397Z,100383.41
2023-04-30T00:06:29.755Z,100373.25
2023-04-30T00:08:57.651Z,100371.19
2023-04-30T00:11:28.250Z,100333.41
2023-04-30T00:13:57.407Z,100392.91
2023-04-30T00:16:25.478Z,100350.69
2023-04-30T00:18:53.369Z,100377.94
2023-04-30T00:21:22.549Z,100377.81
2023-04-30T00:23:50.390Z,100352.16
2023-04-30T00:26:18.082Z,100339.75
2023-04-30T00:28:49.366Z,100358.31
2023-04-30T00:31:18.069Z,100337.34
2023-04-30T00:33:45.861Z,100323.78
2023-04-30T00:36:14.627Z,100321.06
2023-04-30T00:38:42.451Z,100306.22
2023-04-30T00:41:10.440Z,100347.03
2023-04-30T00:43:38.116Z,100342.69
2023-04-30T00:46:06.871Z,100331.72
2023-04-30T00:48:35.234Z,100335.88
2023-04-30T00:51:04.284Z,100311.06
2023-04-30T00:53:32.624Z,100343.00
2023-04-30T00:56:00.413Z,100321.72
2023-04-30T00:58:28.427Z,100318.19
2023-04-30T01:00:56.298Z,100328.00
2023-04-30T01:03:24.321Z,100335.75
2023-04-30T01:05:53.922Z,100322.72
2023-04-30T01:08:22.591Z,100315.78
2023-04-30T01:11:09.605Z,100291.28
2023-04-30T01:13:49.721Z,100267.13
2023-04-30T01:16:28.946Z,100301.94
2023-04-30T01:19:02.389Z,100305.63
2023-04-30T01:21:33.467Z,100294.66
2023-04-30T01:24:31.958Z,100301.47
2023-04-30T01:27:30.688Z,100287.91
2023-04-30T01:30:02.043Z,100291.59
2023-04-30T01:32:31.420Z,100267.94
2023-04-30T01:35:00.641Z,100283.41
2023-04-30T01:37:36.644Z,100250.53
2023-04-30T01:40:22.705Z,100264.56
2023-04-30T01:43:27.879Z,100264.56
2023-04-30T01:46:08.886Z,100256.03
2023-04-30T01:49:13.232Z,100271.16
2023-04-30T01:51:47.363Z,100268.44
2023-04-30T01:54:33.359Z,100232.81
2023-04-30T01:57:05.190Z,100267.94
2023-04-30T01:59:35.971Z,100272.94
2023-04-30T02:02:03.994Z,100227.66
2023-04-30T02:04:31.842Z,100260.53
2023-04-30T02:06:59.812Z,100238.16
2023-04-30T02:09:28.641Z,100216.88
2023-04-30T02:11:58.098Z,100239.28
2023-04-30T02:14:26.150Z,100257.00
2023-04-30T02:16:54.267Z,100254.25
2023-04-30T02:19:22.137Z,100217.19
2023-04-30T02:21:50.116Z,100214.00
2023-04-30T02:24:17.928Z,100239.13
2023-04-30T02:26:45.884Z,100236.53
2023-04-30T02:29:13.685Z,100232.53
2023-04-30T02:31:41.678Z,100244.28
2023-04-30T02:34:12.038Z,100251.69
2023-04-30T02:36:39.913Z,100286.78
2023-04-30T02:39:09.180Z,100259.38
2023-04-30T02:41:37.126Z,100288.88
2023-04-30T02:44:04.970Z,100285.50
2023-04-30T02:46:32.748Z,100240.38
2023-04-30T02:49:00.478Z,100251.00
2023-04-30T02:51:28.587Z,100261.66
2023-04-30T02:53:59.047Z,100269.38
2023-04-30T02:56:26.947Z,100282.25
2023-04-30T02:58:54.714Z,100271.03
2023-04-30T03:01:22.505Z,100265.19
2023-04-30T03:03:50.278Z,100279.84
2023-04-30T03:06:18.138Z,100285.66
2023-04-30T03:08:45.966Z,100281.47
2023-04-30T03:11:13.741Z,100284.19
2023-04-30T03:13:45.657Z,100257.28
2023-04-30T03:16:13.453Z,100261.94
2023-04-30T03:18:41.305Z,100283.72
2023-04-30T03:21:09.906Z,100293.06
2023-04-30T03:23:38.108Z,100283.41
2023-04-30T03:26:06.190Z,100271.13
2023-04-30T03:28:36.533Z,100297.75
2023-04-30T03:31:05.668Z,100276.44
2023-04-30T03:33:33.941Z,100291.59
2023-04-30T03:36:01.829Z,100269.69
2023-04-30T03:38:29.598Z,100293.06
2023-04-30T03:40:57.346Z,100297.25
2023-04-30T03:43:25.161Z,100281.47
2023-04-30T03:45:53.010Z,100271.97
2023-04-30T03:48:21.532Z,100243.25
2023-04-30T03:50:50.157Z,100271.78
2023-04-30T03:53:17.893Z,100274.84
2023-04-30T03:55:45.924Z,100234.56
2023-04-30T03:58:13.798Z,100279.22
2023-04-30T04:00:42.682Z,100275.84
2023-04-30T04:03:10.948Z,100265.81
2023-04-30T04:05:40.268Z,100241.66
2023-04-30T04:08:08.298Z,100285.81
2023-04-30T04:10:36.338Z,100256.13
2023-04-30T04:13:04.092Z,100294.53
2023-04-30T04:15:31.980Z,100260.81
2023-04-30T04:17:59.932Z,100291.28
2023-04-30T04:20:30.097Z,100270.94
2023-04-30T04:22:57.996Z,100291.59
2023-04-30T04:25:25.772Z,100290.81
2023-04-30T04:27:53.783Z,100274.19
2023-04-30T04:30:21.465Z,100290.31
2023-04-30T04:32:54.150Z,100279.66
2023-04-30T04:35:22.193Z,100275.94
2023-04-30T04:37:49.978Z,100292.56
2023-04-30T04:40:18.013Z,100281.75
2023-04-30T04:42:45.600Z,100234.06
2023-04-30T04:45:13.572Z,100246.47
2023-04-30T04:47:41.649Z,100298.22
2023-04-30T04:50:10.186Z,100251.63
2023-04-30T04:52:39.457Z,100270.81
2023-04-30T04:55:08.917Z,100291.13
2023-04-30T04:57:37.475Z,100300.16
2023-04-30T05:00:08.485Z,100304.81
2023-04-30T05:02:36.355Z,100302.75
2023-04-30T05:05:04.457Z,100283.34
2023-04-30T05:07:32.359Z,100301.94
2023-04-30T05:10:00.176Z,100298.53
2023-04-30T05:12:27.885Z,100310.16
2023-04-30T05:14:55.606Z,100294.47
2023-04-30T05:17:23.364Z,100279.97
2023-04-30T05:19:52.143Z,100320.28
2023-04-30T05:22:19.818Z,100322.03
2023-04-30T05:24:47.576Z,100328.50
2023-04-30T05:27:16.774Z,100275.78
2023-04-30T05:29:44.549Z,100329.94
2023-04-30T05:32:12.512Z,100299.13
2023-04-30T05:34:40.164Z,100334.22
2023-04-30T05:37:07.835Z,100288.97
2023-04-30T05:39:35.672Z,100318.28
2023-04-30T05:42:03.667Z,100340.41
2023-04-30T05:44:31.556Z,100339.28
2023-04-30T05:46:59.208Z,100302.66
2023-04-30T05:49:27.500Z,100307.34
2023-04-30T05:51:55.404Z,100338.78
2023-04-30T05:54:23.284Z,100338.31
2023-04-30T05:56:51.130Z,100342.81
2023-04-30T05:59:19.310Z,100323.13
2023-04-30T06:01:47.194Z,100304.28
2023-04-30T06:04:15.036Z,100304.78
2023-04-30T06:06:42.796Z,100312.19
2023-04-30T06:09:10.821Z,100309.44
2023-04-30T06:11:40.368Z,100325.41
2023-04-30T06:14:10.676Z,100347.00
2023-04-30T06:16:38.727Z,100332.16
2023-04-30T06:19:06.576Z,100321.19
2023-04-30T06:21:34.354Z,100359.56
2023-04-30T06:24:02.154Z,100359.72
2023-04-30T06:26:29.995Z,100340.34
2023-04-30T06:28:57.817Z,100364.25
2023-04-30T06:31:26.501Z,100344.28
2023-04-30T06:33:54.288Z,100327.31
2023-04-30T06:36:22.176Z,100341.22
2023-04-30T06:38:49.962Z,100365.53
2023-04-30T06:41:18.071Z,100354.09
2023-04-30T06:43:45.713Z,100368.25
2023-04-30T06:46:15.378Z,100349.03
2023-04-30T06:48:43.403Z,100387.09
2023-04-30T06:51:12.185Z,100357.94
2023-04-30T06:53:39.901Z,100381.47
2023-04-30T06:56:08.124Z,100387.94
2023-04-30T06:58:35.760Z,100362.91
2023-04-30T07:01:03.631Z,100405.97
2023-04-30T07:03:31.811Z,100410.31
2023-04-30T07:06:00.595Z,100420.78
2023-04-30T07:08:28.495Z,100416.41
2023-04-30T07:10:56.745Z,100423.53
2023-04-30T07:13:24.473Z,100406.91
2023-04-30T07:15:53.126Z,100427.88
2023-04-30T07:18:21.018Z,100415.94
2023-04-30T07:20:48.906Z,100382.38
2023-04-30T07:23:16.758Z,100415.97
2023-04-30T07:25:45.522Z,100404.84
2023-04-30T07:28:13.239Z,100412.75
2023-04-30T07:30:41.329Z,100385.84
2023-04-30T07:33:09.791Z,100408.41
2023-04-30T07:35:37.523Z,100412.44
2023-04-30T07:38:06.176Z,100396.63
2023-04-30T07:40:36.940Z,100420.00
2023-04-30T07:43:05.341Z,100334.03
2023-04-30T07:45:34.177Z,100415.97
2023-04-30T07:48:02.251Z,100425.97
2023-04-30T07:50:34.214Z,100412.94
2023-04-30T07:53:02.603Z,100436.63
2023-04-30T07:55:31.420Z,100421.78
2023-04-30T07:57:59.792Z,100429.69
2023-04-30T08:00:29.622Z,100383.91
2023-04-30T08:02:59.041Z,100442.28
2023-04-30T08:05:27.903Z,100402.28
2023-04-30T08:07:55.715Z,100431.31
2023-04-30T08:10:23.730Z,100433.59
2023-04-30T08:12:51.434Z,100396.16
2023-04-30T08:15:22.424Z,100421.31
2023-04-30T08:17:51.412Z,100442.75
2023-04-30T08:20:19.691Z,100420.03
2023-04-30T08:22:47.453Z,100424.69
2023-04-30T08:25:15.142Z,100421.78
2023-04-30T08:27:42.982Z,100438.69
2023-04-30T08:30:11.701Z,100461.25
2023-04-30T08:32:39.635Z,100450.78
2023-04-30T08:35:08.335Z,100418.56
2023-04-30T08:37:36.112Z,100462.75
2023-04-30T08:40:04.879Z,100440.16
2023-04-30T08:42:37.238Z,100470.66
2023-04-30T08:45:06.971Z,100461.00
2023-04-30T08:47:35.020Z,100470.38
2023-04-30T08:50:03.323Z,100461.50
2023-04-30T08:52:35.684Z,100463.75
2023-04-30T08:55:08.145Z,100456.66
2023-04-30T08:57:37.311Z,100460.22
2023-04-30T09:00:07.067Z,100447.63
2023-04-30T09:02:35.349Z,100482.94
2023-04-30T09:05:03.376Z,100464.56
2023-04-30T09:07:35.046Z,100461.97
2023-04-30T09:10:05.007Z,100478.09
2023-04-30T09:12:32.929Z,100453.94
2023-04-30T09:15:09.213Z,100465.69
2023-04-30T09:17:37.027Z,100481.81
2023-04-30T09:20:12.979Z,100482.28
2023-04-30T09:22:42.441Z,100439.88
2023-04-30T09:25:11.456Z,100490.38
2023-04-30T09:27:39.219Z,100445.34
2023-04-30T09:30:08.188Z,100487.78
2023-04-30T09:32:36.560Z,100433.44
2023-04-30T09:35:05.286Z,100476.16
2023-04-30T09:37:38.273Z,100459.88
2023-04-30T09:40:07.578Z,100489.53
2023-04-30T09:42:36.436Z,100486.31
2023-04-30T09:45:05.609Z,100490.03
2023-04-30T09:47:33.547Z,100475.03
2023-04-30T09:50:01.408Z,100479.53
2023-04-30T09:52:29.188Z,100442.59
2023-04-30T09:54:57.102Z,100481.00
2023-04-30T09:57:25.760Z,100453.88
2023-04-30T09:59:54.505Z,100472.78
2023-04-30T10:02:24.040Z,100483.09
2023-04-30T10:04:58.348Z,100480.69
2023-04-30T10:07:34.528Z,100472.28
2023-04-30T10:10:10.247Z,100476.81
2023-04-30T10:12:50.606Z,100462.63
2023-04-30T10:15:25.051Z,100466.50
2023-04-30T10:18:05.276Z,100449.25
2023-04-30T10:20:37.021Z,100471.00
2023-04-30T10:23:08.639Z,100453.59
2023-04-30T10:25:39.049Z,100456.66
2023-04-30T10:28:09.170Z,100436.81
2023-04-30T10:30:36.834Z,100452.78
2023-04-30T10:33:20.509Z,100460.03
2023-04-30T10:35:57.199Z,100444.09
2023-04-30T10:38:26.881Z,100458.91
2023-04-30T10:40:59.587Z,100469.22
2023-04-30T10:43:29.782Z,100446.31
2023-04-30T10:46:00.988Z,100469.38
2023-04-30T10:48:31.525Z,100388.94
2023-04-30T10:50:59.916Z,100464.38
2023-04-30T10:53:31.498Z,100442.59
2023-04-30T10:56:07.120Z,100459.00
2023-04-30T10:58:37.169Z,100450.47
2023-04-30T11:01:16.339Z,100430.66
2023-04-30T11:04:07.711Z,100450.16
2023-04-30T11:06:57.194Z,100458.06
2023-04-30T11:09:48.521Z,100435.16
2023-04-30T11:12:22.170Z,100443.25
2023-04-30T11:14:50.522Z,100442.78
2023-04-30T11:17:25.201Z,100431.28
2023-04-30T11:19:54.740Z,100433.09
2023-04-30T11:22:24.682Z,100455.66
2023-04-30T11:25:10.484Z,100454.81
2023-04-30T11:27:42.197Z,100414.75
2023-04-30T11:30:15.474Z,100449.88
2023-04-30T11:32:49.736Z,100447.13
2023-04-30T11:35:19.374Z,100408.91
2023-04-30T11:37:48.789Z,100423.88
2023-04-30T11:40:16.618Z,100418.28
2023-04-30T11:42:46.278Z,100451.00
2023-04-30T11:45:21.190Z,100446.13
2023-04-30T11:47:54.714Z,100438.56
2023-04-30T11:50:29.672Z,100424.56
2023-04-30T11:52:59.442Z,100425.03
2023-04-30T11:55:28.438Z,100433.09
2023-04-30T11:57:59.514Z,100419.69
2023-04-30T12:00:29.879Z,100434.69
2023-04-30T12:03:00.395Z,100407.78
2023-04-30T12:05:28.500Z,100414.06
2023-04-30T12:08:13.273Z,100429.06
2023-04-30T12:10:41.006Z,100383.78
2023-04-30T12:13:08.795Z,100413.25
2023-04-30T12:15:37.381Z,100412.09
2023-04-30T12:18:13.592Z,100358.81
2023-04-30T12:20:42.876Z,100389.72
2023-04-30T12:23:10.769Z,100385.97
2023-04-30T12:25:45.964Z,100329.47
2023-04-30T12:28:14.059Z,100391.78
2023-04-30T12:30:43.529Z,100387.63
2023-04-30T12:33:11.507Z,100350.56
2023-04-30T12:35:43.432Z,100397.91
2023-04-30T12:38:11.496Z,100391.28
2023-04-30T12:40:39.161Z,100385.97
2023-04-30T12:43:08.742Z,100389.22
2023-04-30T12:45:54.481Z,100386.47
2023-04-30T12:48:24.609Z,100359.59
2023-04-30T12:51:01.812Z,100385.69
2023-04-30T12:53:30.051Z,100364.41
2023-04-30T12:56:16.441Z,100369.72
2023-04-30T12:58:51.326Z,100343.94
2023-04-30T13:01:25.675Z,100348.16
2023-04-30T13:03:54.167Z,100370.84
2023-04-30T13:06:23.636Z,100381.94
2023-04-30T13:11:24.364Z,100372.78
2023-04-30T13:13:52.094Z,100358.78
2023-04-30T13:16:19.994Z,100376.66
2023-04-30T13:18:47.993Z,100357.00
2023-04-30T13:21:15.867Z,100371.50
2023-04-30T13:23:51.994Z,100350.88
2023-04-30T13:26:22.393Z,100356.19
2023-04-30T13:28:52.612Z,100359.56
2023-04-30T13:31:20.760Z,100339.63
2023-04-30T13:33:49.365Z,100352.00
2023-04-30T13:36:20.441Z,100341.72
2023-04-30T13:38:48.142Z,100364.25
2023-04-30T13:41:15.968Z,100372.63
2023-04-30T13:43:44.942Z,100381.16
2023-04-30T13:46:12.680Z,100366.31
2023-04-30T13:48:41.893Z,100367.13
2023-04-30T13:51:09.892Z,100347.31
2023-04-30T13:53:37.865Z,100349.72
2023-04-30T13:56:06.686Z,100348.91
2023-04-30T13:58:34.392Z,100347.59
2023-04-30T14:01:02.843Z,100365.69
2023-04-30T14:03:31.417Z,100336.53
2023-04-30T14:05:59.292Z,100349.22
2023-04-30T14:08:27.099Z,100338.91
2023-04-30T14:10:54.922Z,100342.41
2023-04-30T14:13:22.685Z,100317.16
2023-04-30T14:15:50.571Z,100326.47
2023-04-30T14:18:18.647Z,100311.03
2023-04-30T14:20:46.482Z,100340.81
2023-04-30T14:23:14.657Z,100317.63
2023-04-30T14:25:42.769Z,100309.56
2023-04-30T14:28:10.700Z,100330.47
2023-04-30T14:30:38.460Z,100320.34
2023-04-30T14:33:06.654Z,100327.59
2023-04-30T14:35:34.466Z,100284.78
2023-04-30T14:38:02.158Z,100295.59
2023-04-30T14:40:29.918Z,100289.00
2023-04-30T14:42:57.659Z,100321.66
2023-04-30T14:45:28.365Z,100318.47
2023-04-30T14:47:56.375Z,100326.81
2023-04-30T14:50:24.329Z,100330.88
2023-04-30T14:52:52.049Z,100327.97
2023-04-30T14:55:19.980Z,100322.19
2023-04-30T14:57:49.252Z,100300.28
2023-04-30T15:00:17.369Z,100354.91
2023-04-30T15:02:45.253Z,100374.41
2023-04-30T15:05:14.112Z,100386.34
2023-04-30T15:07:44.998Z,100369.56
2023-04-30T15:10:14.934Z,100378.44
2023-04-30T15:12:42.918Z,100366.34
2023-04-30T15:15:11.067Z,100354.59
2023-04-30T15:17:39.350Z,100373.09
2023-04-30T15:20:08.980Z,100367.97
2023-04-30T15:22:36.734Z,100369.91
2023-04-30T15:25:05.510Z,100351.69
2023-04-30T15:27:34.023Z,100363.13
2023-04-30T15:30:01.854Z,100356.06
2023-04-30T15:32:29.916Z,100393.91
2023-04-30T15:34:57.756Z,100391.19
2023-04-30T15:37:28.746Z,100387.81
2023-04-30T15:39:56.959Z,100387.81
2023-04-30T15:42:24.838Z,100400.69
2023-04-30T15:44:53.019Z,100426.34
2023-04-30T15:47:23.206Z,100430.22
2023-04-30T15:49:51.645Z,100459.56
2023-04-30T15:52:20.799Z,100456.00
2023-04-30T15:54:48.865Z,100484.06
2023-04-30T15:57:16.893Z,100477.44
2023-04-30T15:59:46.910Z,100475.03
2023-04-30T16:02:14.595Z,100444.06
2023-04-30T16:04:43.254Z,100385.22
2023-04-30T16:07:12.274Z,100365.72
2023-04-30T16:09:40.086Z,100327.38
2023-04-30T16:12:08.310Z,100370.22
2023-04-30T16:14:37.544Z,100384.88
2023-04-30T16:17:05.877Z,100414.22
2023-04-30T16:19:33.628Z,100406.00
2023-04-30T16:22:01.956Z,100382.94
2023-04-30T16:24:29.845Z,100418.69
2023-04-30T16:26:57.558Z,100425.66
2023-04-30T16:29:25.264Z,100406.47
2023-04-30T16:31:54.347Z,100394.84
2023-04-30T16:34:22.834Z,100395.03
2023-04-30T16:36:50.890Z,100375.41
2023-04-30T16:39:19.702Z,100373.94
2023-04-30T16:41:47.648Z,100393.56
2023-04-30T16:44:16.683Z,100416.63
2023-04-30T16:46:44.394Z,100410.34
2023-04-30T16:49:12.123Z,100403.38
2023-04-30T16:51:41.829Z,100426.56
2023-04-30T16:54:09.713Z,100412.25
2023-04-30T16:56:37.440Z,100388.50
2023-04-30T16:59:05.119Z,100435.78
2023-04-30T17:01:34.548Z,100427.66
2023-04-30T17:04:02.294Z,100462.97
2023-04-30T17:06:30.307Z,100402.63
2023-04-30T17:08:58.250Z,100434.38
2023-04-30T17:11:28.370Z,100436.31
2023-04-30T17:13:56.235Z,100416.63
2023-04-30T17:16:23.995Z,100436.13
2023-04-30T17:18:51.800Z,100429.53
2023-04-30T17:21:19.732Z,100453.13
2023-04-30T17:23:49.005Z,100455.53
2023-04-30T17:26:18.395Z,100437.13
2023-04-30T17:28:46.210Z,100407.16
2023-04-30T17:31:14.245Z,100444.41
2023-04-30T17:33:45.363Z,100453.53
2023-04-30T17:36:13.877Z,100433.53
2023-04-30T17:38:42.943Z,100446.44
2023-04-30T17:41:10.705Z,100462.25
2023-04-30T17:43:39.104Z,100469.00
2023-04-30T17:46:06.827Z,100471.72
2023-04-30T17:48:34.691Z,100450.91
2023-04-30T17:51:02.901Z,100440.72
2023-04-30T17:53:30.895Z,100479.13
2023-04-30T17:56:00.215Z,100449.09
2023-04-30T17:58:28.414Z,100493.44
2023-04-30T18:00:56.868Z,100476.50
2023-04-30T18:03:25.131Z,100487.00
2023-04-30T18:05:52.966Z,100474.25
2023-04-30T18:08:20.709Z,100428.06
2023-04-30T18:10:48.912Z,100477.78
2023-04-30T18:13:16.584Z,100460.19
2023-04-30T18:15:44.258Z,100478.59
2023-04-30T18:18:12.116Z,100449.41
2023-04-30T18:20:40.101Z,100481.06
2023-04-30T18:23:10.052Z,100486.91
2023-04-30T18:25:38.078Z,100459.31
2023-04-30T18:28:07.890Z,100469.63
2023-04-30T18:30:36.936Z,100474.78
2023-04-30T18:33:05.103Z,100493.69
2023-04-30T18:35:34.183Z,100500.78
2023-04-30T18:38:02.078Z,100489.28
2023-04-30T18:40:29.992Z,100519.28
2023-04-30T18:42:57.811Z,100519.63
2023-04-30T18:45:27.652Z,100487.84
2023-04-30T18:47:56.092Z,100526.94
2023-04-30T18:50:23.748Z,100529.53
2023-04-30T18:52:51.692Z,100530.34
2023-04-30T18:55:19.869Z,100529.03
2023-04-30T18:57:47.770Z,100503.53
2023-04-30T19:00:15.756Z,100496.47
2023-04-30T19:02:43.614Z,100512.59
2023-04-30T19:05:11.502Z,100543.09
2023-04-30T19:07:40.039Z,100555.69
2023-04-30T19:10:08.247Z,100546.78
2023-04-30T19:12:36.063Z,100557.94
2023-04-30T19:15:04.564Z,100567.16
2023-04-30T19:17:32.322Z,100571.03
2023-04-30T19:20:00.385Z,100535.00
2023-04-30T19:22:28.390Z,100524.47
2023-04-30T19:24:57.229Z,100585.81
2023-04-30T19:27:25.612Z,100585.81
2023-04-30T19:29:57.025Z,100577.72
2023-04-30T19:32:26.446Z,100564.31
2023-04-30T19:34:54.631Z,100585.31
2023-04-30T19:37:22.560Z,100553.31
2023-04-30T19:39:50.436Z,100565.75
2023-04-30T19:42:19.406Z,100580.44
2023-04-30T19:44:47.493Z,100568.47
2023-04-30T19:47:15.452Z,100611.13
2023-04-30T19:49:44.674Z,100616.47
2023-04-30T19:52:12.847Z,100575.09
2023-04-30T19:54:45.479Z,100617.06
2023-04-30T19:57:13.279Z,100604.97
2023-04-30T19:59:42.319Z,100621.28
2023-04-30T20:02:10.216Z,100576.09
2023-04-30T20:04:38.132Z,100602.53
2023-04-30T20:07:06.005Z,100611.25
2023-04-30T20:09:33.934Z,100613.50
2023-04-30T20:12:03.775Z,100624.44
2023-04-30T20:14:31.782Z,100640.28
2023-04-30T20:16:59.538Z,100627.69
2023-04-30T20:19:27.298Z,100605.56
2023-04-30T20:21:55.410Z,100642.72
2023-04-30T20:24:23.447Z,100618.16
2023-04-30T20:26:51.117Z,100634.50
2023-04-30T20:29:20.740Z,100615.28
2023-04-30T20:31:48.844Z,100583.38
2023-04-30T20:34:16.966Z,100622.69
2023-04-30T20:36:45.211Z,100630.91
2023-04-30T20:39:13.781Z,100635.84
2023-04-30T20:41:41.627Z,100653.34
2023-04-30T20:44:10.258Z,100626.47
2023-04-30T20:46:38.661Z,100606.78
2023-04-30T20:49:06.515Z,100621.84
2023-04-30T20:51:34.285Z,100635.84
2023-04-30T20:54:02.078Z,100633.91
2023-04-30T20:56:30.625Z,100648.31
2023-04-30T20:58:58.273Z,100602.56
2023-04-30T21:01:26.314Z,100635.53
2023-04-30T21:03:55.856Z,100652.00
2023-04-30T21:06:24.621Z,100587.81
2023-04-30T21:08:52.374Z,100634.84
2023-04-30T21:11:20.665Z,100634.53
2023-04-30T21:13:51.334Z,100607.63
2023-04-30T21:16:21.083Z,100622.34
2023-04-30T21:18:49.144Z,100644.78
2023-04-30T21:21:17.103Z,100609.56
2023-04-30T21:23:47.305Z,100632.53
2023-04-30T21:26:18.965Z,100614.13
2023-04-30T21:28:47.116Z,100611.19
2023-04-30T21:31:15.583Z,100638.38
2023-04-30T21:33:43.522Z,100639.88
2023-04-30T21:36:11.572Z,100605.28
2023-04-30T21:38:39.471Z,100631.47
2023-04-30T21:41:07.263Z,100646.47
2023-04-30T21:43:35.135Z,100618.03
2023-04-30T21:46:03.545Z,100615.63
2023-04-30T21:48:31.457Z,100625.63
2023-04-30T21:50:59.747Z,100633.84
2023-04-30T21:53:27.917Z,100622.41
2023-04-30T21:55:56.733Z,100623.19
2023-04-30T21:58:24.963Z,100604.00
2023-04-30T22:00:52.991Z,100600.78
2023-04-30T22:03:20.908Z,100629.84
2023-04-30T22:05:48.707Z,100601.34
2023-04-30T22:08:16.562Z,100611.56
2023-04-30T22:10:44.443Z,100608.03
2023-04-30T22:13:12.383Z,100634.34
2023-04-30T22:15:47.679Z,100627.38
2023-04-30T22:18:16.225Z,100613.34
2023-04-30T22:20:44.045Z,100586.63
2023-04-30T22:23:11.855Z,100632.88
2023-04-30T22:25:39.662Z,100631.75
2023-04-30T22:28:07.556Z,100606.81
2023-04-30T22:30:35.231Z,100584.59
2023-04-30T22:33:03.021Z,100610.59
2023-04-30T22:35:32.900Z,100615.13
2023-04-30T22:38:01.729Z,100578.75
2023-04-30T22:40:30.037Z,100608.47
2023-04-30T22:42:58.988Z,100615.13
2023-04-30T22:45:27.570Z,100572.22
2023-04-30T22:47:55.429Z,100614.53
2023-04-30T22:50:23.470Z,100614.47
2023-04-30T22:52:51.592Z,100608.66
2023-04-30T22:55:19.792Z,100581.13
2023-04-30T22:57:47.513Z,100612.28
2023-04-30T23:00:15.885Z,100623.97
2023-04-30T23:02:43.991Z,100594.22
2023-04-30T23:05:12.949Z,100616.56
2023-04-30T23:07:40.975Z,100561.09
2023-04-30T23:10:09.009Z,100564.50
2023-04-30T23:12:37.422Z,100618.16
2023-04-30T23:15:05.758Z,100576.13
2023-04-30T23:17:34.017Z,100571.28
2023-04-30T23:20:01.775Z,100576.31
2023-04-30T23:22:29.493Z,100594.41
2023-04-30T23:24:57.521Z,100591.47
2023-04-30T23:27:28.429Z,100599.25
2023-04-30T23:29:59.697Z,100577.09
2023-04-30T23:32:28.484Z,100566.47
2023-04-30T23:34:56.454Z,100558.72
2023-04-30T23:37:24.275Z,100458.41
2023-04-30T23:39:52.192Z,100602.38
2023-04-30T23:42:19.978Z,100600.31
2023-04-30T23:44:48.129Z,100588.78
2023-04-30T23:47:15.817Z,100568.41
2023-04-30T23:49:46.041Z,100589.50
2023-04-30T23:52:14.709Z,100595.47
2023-04-30T23:54:42.656Z,100594.34
2023-04-30T23:57:11.516Z,100602.25
2023-04-30T23:59:39.817Z,100558.47
